createdAt,value
2022-08-16T00:00:29.013Z,20.25
2022-08-16T00:01:34.210Z,20.27
2022-08-16T00:02:29.041Z,20.31
2022-08-16T00:03:27.956Z,20.33
2022-08-16T00:04:27.945Z,20.34
2022-08-16T00:05:35.288Z,20.34
2022-08-16T00:06:28.936Z,20.33
2022-08-16T00:07:29.404Z,20.33
2022-08-16T00:08:36.698Z,20.34
2022-08-16T00:09:28.973Z,20.33
2022-08-16T00:10:27.876Z,20.33
2022-08-16T00:11:27.849Z,20.31
2022-08-16T00:12:27.889Z,20.30
2022-08-16T00:13:27.839Z,20.25
2022-08-16T00:14:29.200Z,20.23
2022-08-16T00:15:51.511Z,20.22
2022-08-16T00:17:06.215Z,20.17
2022-08-16T00:17:28.800Z,20.19
2022-08-16T00:18:29.798Z,20.17
2022-08-16T00:19:28.374Z,20.19
2022-08-16T00:20:28.752Z,20.16
2022-08-16T00:21:28.929Z,20.17
2022-08-16T00:22:28.055Z,20.15
2022-08-16T00:23:34.613Z,20.15
2022-08-16T00:24:32.225Z,20.13
2022-08-16T00:26:33.390Z,20.15
2022-08-16T00:26:36.696Z,20.16
2022-08-16T00:27:30.886Z,20.16
2022-08-16T00:28:28.675Z,20.13
2022-08-16T00:29:29.926Z,20.12
2022-08-16T00:30:28.920Z,20.13
2022-08-16T00:31:27.599Z,20.15
2022-08-16T00:32:33.003Z,20.15
2022-08-16T00:33:28.583Z,20.10
2022-08-16T00:34:41.367Z,20.10
2022-08-16T00:35:28.543Z,20.08
2022-08-16T00:36:27.529Z,20.07
2022-08-16T00:37:58.409Z,20.05
2022-08-16T00:38:40.882Z,20.02
2022-08-16T00:39:28.511Z,20.01
2022-08-16T00:40:34.569Z,20.00
2022-08-16T00:41:28.486Z,19.98
2022-08-16T00:42:30.025Z,19.98
2022-08-16T00:43:40.785Z,20.00
2022-08-16T00:44:32.696Z,20.00
2022-08-16T00:45:27.466Z,20.00
2022-08-16T00:46:33.913Z,19.97
2022-08-16T00:47:29.964Z,19.94
2022-08-16T00:48:30.298Z,19.90
2022-08-16T00:49:27.351Z,19.95
2022-08-16T00:50:35.859Z,19.97
2022-08-16T00:51:29.497Z,19.94
2022-08-16T00:52:30.458Z,19.94
2022-08-16T00:53:27.333Z,19.89
2022-08-16T00:54:27.289Z,19.87
2022-08-16T00:55:27.278Z,19.85
2022-08-16T00:56:56.148Z,19.86
2022-08-16T00:57:33.055Z,19.83
2022-08-16T00:58:32.270Z,19.82
2022-08-16T00:59:28.229Z,19.82
2022-08-16T01:00:27.359Z,19.80
2022-08-16T01:01:27.224Z,19.79
2022-08-16T01:02:31.439Z,19.78
2022-08-16T01:03:30.243Z,19.79
2022-08-16T01:04:30.577Z,19.80
2022-08-16T01:05:27.150Z,19.83
2022-08-16T01:06:40.518Z,19.80
2022-08-16T01:07:28.126Z,19.79
2022-08-16T01:08:36.157Z,19.79
2022-08-16T01:09:33.408Z,19.79
2022-08-16T01:10:31.386Z,19.78
2022-08-16T01:11:27.067Z,19.79
2022-08-16T01:12:27.058Z,19.78
2022-08-16T01:13:27.046Z,19.78
2022-08-16T01:14:30.061Z,19.79
2022-08-16T01:15:27.017Z,19.79
2022-08-16T01:16:27.007Z,19.76
2022-08-16T01:17:26.986Z,19.79
2022-08-16T01:18:40.537Z,19.78
2022-08-16T01:19:29.264Z,19.76
2022-08-16T01:20:30.156Z,19.75
2022-08-16T01:21:33.394Z,19.76
2022-08-16T01:22:48.140Z,19.76
2022-08-16T01:23:27.935Z,19.71
2022-08-16T01:24:53.210Z,19.71
2022-08-16T01:25:34.195Z,19.68
2022-08-16T01:26:34.988Z,19.68
2022-08-16T01:27:27.863Z,19.67
2022-08-16T01:28:30.984Z,19.65
2022-08-16T01:29:55.983Z,19.64
2022-08-16T01:30:27.829Z,19.64
2022-08-16T01:31:30.994Z,19.64
2022-08-16T01:32:33.657Z,19.64
2022-08-16T01:33:33.398Z,19.64
2022-08-16T01:34:27.765Z,19.64
2022-08-16T01:35:26.757Z,19.62
2022-08-16T01:36:26.826Z,19.61
2022-08-16T01:37:26.725Z,19.64
2022-08-16T01:38:28.533Z,19.64
2022-08-16T01:39:26.733Z,19.64
2022-08-16T01:40:26.694Z,19.67
2022-08-16T01:41:26.673Z,19.67
2022-08-16T01:42:26.655Z,19.65
2022-08-16T01:43:26.655Z,19.64
2022-08-16T01:44:26.643Z,19.61
2022-08-16T01:45:40.304Z,19.60
2022-08-16T01:46:38.405Z,19.57
2022-08-16T01:47:27.590Z,19.60
2022-08-16T01:48:26.593Z,19.60
2022-08-16T01:49:26.582Z,19.58
2022-08-16T01:50:41.799Z,19.57
2022-08-16T01:51:27.545Z,19.57
2022-08-16T01:52:29.830Z,19.55
2022-08-16T01:53:26.536Z,19.52
2022-08-16T01:54:31.248Z,19.49
2022-08-16T01:55:26.496Z,19.47
2022-08-16T01:56:27.512Z,19.47
2022-08-16T01:57:26.498Z,19.45
2022-08-16T01:58:26.448Z,19.50
2022-08-16T01:59:26.442Z,19.50
2022-08-16T02:00:29.400Z,19.50
2022-08-16T02:01:28.124Z,19.49
2022-08-16T02:02:27.368Z,19.47
2022-08-16T02:03:26.635Z,19.45
2022-08-16T02:04:48.247Z,19.43
2022-08-16T02:05:30.288Z,19.42
2022-08-16T02:06:34.284Z,19.45
2022-08-16T02:07:27.361Z,19.47
2022-08-16T02:08:32.685Z,19.47
2022-08-16T02:09:27.318Z,19.46
2022-08-16T02:10:27.307Z,19.47
2022-08-16T02:11:26.328Z,19.47
2022-08-16T02:12:51.726Z,19.47
2022-08-16T02:13:27.766Z,19.47
2022-08-16T02:14:27.315Z,19.46
2022-08-16T02:15:26.511Z,19.43
2022-08-16T02:16:26.221Z,19.45
2022-08-16T02:17:26.224Z,19.46
2022-08-16T02:18:26.190Z,19.45
2022-08-16T02:19:59.139Z,19.45
2022-08-16T02:20:27.902Z,19.45
2022-08-16T02:21:31.600Z,19.45
2022-08-16T02:22:33.841Z,19.42
2022-08-16T02:23:27.159Z,19.45
2022-08-16T02:24:32.533Z,19.45
2022-08-16T02:25:52.251Z,19.40
2022-08-16T02:26:27.079Z,19.42
2022-08-16T02:27:26.079Z,19.42
2022-08-16T02:28:26.051Z,19.46
2022-08-16T02:29:31.848Z,19.47
2022-08-16T02:30:37.171Z,19.49
2022-08-16T02:32:03.966Z,19.49
2022-08-16T02:32:49.829Z,19.45
2022-08-16T02:33:44.553Z,19.43
2022-08-16T02:34:32.773Z,19.45
2022-08-16T02:35:26.990Z,19.43
2022-08-16T02:36:47.795Z,19.46
2022-08-16T02:37:51.563Z,19.46
2022-08-16T02:38:26.944Z,19.46
2022-08-16T02:39:25.959Z,19.43
2022-08-16T02:40:25.906Z,19.42
2022-08-16T02:41:25.889Z,19.42
2022-08-16T02:42:25.872Z,19.43
2022-08-16T02:43:26.886Z,19.46
2022-08-16T02:44:26.892Z,19.46
2022-08-16T02:45:28.026Z,19.45
2022-08-16T02:46:30.124Z,19.43
2022-08-16T02:47:26.808Z,19.42
2022-08-16T02:48:30.499Z,19.40
2022-08-16T02:49:57.983Z,19.42
2022-08-16T02:50:55.124Z,19.42
2022-08-16T02:51:26.750Z,19.39
2022-08-16T02:52:29.623Z,19.39
2022-08-16T02:53:26.744Z,19.39
2022-08-16T02:54:25.721Z,19.38
2022-08-16T02:55:40.943Z,19.34
2022-08-16T02:56:32.398Z,19.31
2022-08-16T02:57:26.707Z,19.35
2022-08-16T02:58:25.706Z,19.32
2022-08-16T02:59:25.658Z,19.31
2022-08-16T03:00:34.149Z,19.30
2022-08-16T03:01:36.705Z,19.30
2022-08-16T03:02:31.954Z,19.31
2022-08-16T03:03:26.600Z,19.31
2022-08-16T03:04:39.667Z,19.32
2022-08-16T03:05:26.569Z,19.32
2022-08-16T03:06:42.350Z,19.30
2022-08-16T03:07:27.358Z,19.28
2022-08-16T03:08:50.873Z,19.28
2022-08-16T03:09:29.866Z,19.30
2022-08-16T03:10:33.423Z,19.32
2022-08-16T03:11:26.524Z,19.32
2022-08-16T03:12:30.422Z,19.35
2022-08-16T03:13:26.480Z,19.34
2022-08-16T03:14:25.456Z,19.32
2022-08-16T03:15:25.455Z,19.30
2022-08-16T03:16:37.763Z,19.30
2022-08-16T03:17:32.166Z,19.32
2022-08-16T03:18:34.784Z,19.35
2022-08-16T03:19:26.522Z,19.40
2022-08-16T03:20:32.252Z,19.40
2022-08-16T03:21:26.376Z,19.40
2022-08-16T03:22:28.701Z,19.39
2022-08-16T03:23:25.325Z,19.40
2022-08-16T03:24:28.569Z,19.42
2022-08-16T03:25:25.336Z,19.46
2022-08-16T03:26:26.304Z,19.46
2022-08-16T03:27:25.306Z,19.43
2022-08-16T03:28:26.263Z,19.42
2022-08-16T03:29:25.265Z,19.40
2022-08-16T03:30:25.249Z,19.38
2022-08-16T03:31:25.234Z,19.35
2022-08-16T03:32:26.285Z,19.35
2022-08-16T03:33:25.334Z,19.35
2022-08-16T03:34:25.199Z,19.34
2022-08-16T03:35:32.988Z,19.34
2022-08-16T03:36:32.634Z,19.34
2022-08-16T03:37:26.155Z,19.35
2022-08-16T03:38:32.399Z,19.34
2022-08-16T03:39:26.161Z,19.35
2022-08-16T03:40:32.952Z,19.35
2022-08-16T03:41:29.279Z,19.39
2022-08-16T03:42:25.101Z,19.38
2022-08-16T03:43:51.411Z,19.40
2022-08-16T03:44:44.380Z,19.39
2022-08-16T03:45:27.356Z,19.40
2022-08-16T03:46:47.312Z,19.39
2022-08-16T03:47:26.053Z,19.39
2022-08-16T03:48:36.651Z,19.34
2022-08-16T03:49:36.440Z,19.34
2022-08-16T03:50:26.912Z,19.35
2022-08-16T03:51:25.460Z,19.32
2022-08-16T03:52:31.647Z,19.32
2022-08-16T03:53:25.944Z,19.28
2022-08-16T03:54:25.938Z,19.28
2022-08-16T03:55:24.970Z,19.28
2022-08-16T03:56:25.898Z,19.30
2022-08-16T03:57:24.911Z,19.30
2022-08-16T03:58:25.874Z,19.30
2022-08-16T03:59:24.893Z,19.30
2022-08-16T04:00:35.755Z,19.30
2022-08-16T04:01:29.403Z,19.28
2022-08-16T04:02:31.631Z,19.28
2022-08-16T04:03:25.802Z,19.30
2022-08-16T04:04:25.071Z,19.31
2022-08-16T04:05:25.802Z,19.32
2022-08-16T04:06:24.769Z,19.31
2022-08-16T04:07:24.908Z,19.31
2022-08-16T04:08:24.763Z,19.34
2022-08-16T04:09:24.792Z,19.38
2022-08-16T04:10:36.051Z,19.39
2022-08-16T04:11:25.722Z,19.42
2022-08-16T04:12:53.349Z,19.43
2022-08-16T04:13:59.994Z,19.49
2022-08-16T04:14:32.978Z,19.50
2022-08-16T04:15:25.655Z,19.55
2022-08-16T04:16:27.401Z,19.55
2022-08-16T04:17:24.632Z,19.58
2022-08-16T04:18:24.632Z,19.62
2022-08-16T04:19:24.602Z,19.61
2022-08-16T04:20:33.840Z,19.65
2022-08-16T04:21:29.396Z,19.64
2022-08-16T04:22:27.736Z,19.65
2022-08-16T04:23:24.590Z,19.67
2022-08-16T04:24:28.698Z,19.65
2022-08-16T04:25:24.524Z,19.68
2022-08-16T04:26:24.550Z,19.68
2022-08-16T04:27:29.016Z,19.72
2022-08-16T04:28:29.218Z,19.72
2022-08-16T04:29:25.503Z,19.75
2022-08-16T04:30:32.326Z,19.76
2022-08-16T04:31:25.459Z,19.78
2022-08-16T04:32:25.440Z,19.80
2022-08-16T04:33:26.975Z,19.85
2022-08-16T04:34:24.935Z,19.87
2022-08-16T04:35:24.781Z,19.87
2022-08-16T04:36:24.393Z,19.87
2022-08-16T04:37:24.359Z,19.89
2022-08-16T04:38:24.368Z,19.90
2022-08-16T04:39:24.436Z,19.90
2022-08-16T04:40:25.521Z,19.89
2022-08-16T04:41:32.760Z,19.90
2022-08-16T04:42:26.220Z,19.90
2022-08-16T04:43:24.367Z,19.89
2022-08-16T04:44:32.726Z,19.87
2022-08-16T04:45:35.782Z,19.89
2022-08-16T04:47:00.524Z,19.94
2022-08-16T04:47:25.273Z,20.00
2022-08-16T04:48:28.429Z,20.01
2022-08-16T04:49:25.209Z,20.01
2022-08-16T04:50:29.786Z,20.02
2022-08-16T04:51:25.180Z,20.02
2022-08-16T04:52:33.694Z,20.02
2022-08-16T04:53:25.219Z,20.04
2022-08-16T04:54:24.144Z,20.02
2022-08-16T04:55:31.632Z,20.07
2022-08-16T04:56:25.108Z,20.05
2022-08-16T04:57:24.118Z,20.04
2022-08-16T04:58:44.919Z,20.04
2022-08-16T04:59:29.205Z,20.04
2022-08-16T05:00:32.098Z,20.02
2022-08-16T05:01:47.812Z,20.04
2022-08-16T05:02:55.948Z,20.05
2022-08-16T05:03:26.028Z,20.04
2022-08-16T05:04:24.030Z,20.04
2022-08-16T05:05:25.007Z,20.04
2022-08-16T05:06:44.780Z,20.00
2022-08-16T05:07:25.075Z,20.01
2022-08-16T05:08:29.147Z,20.00
2022-08-16T05:09:24.948Z,20.00
2022-08-16T05:10:23.929Z,20.00
2022-08-16T05:11:23.930Z,20.04
2022-08-16T05:12:30.427Z,20.05
2022-08-16T05:13:24.917Z,20.07
2022-08-16T05:14:45.911Z,20.12
2022-08-16T05:15:24.870Z,20.19
2022-08-16T05:16:24.114Z,20.25
2022-08-16T05:17:24.857Z,20.26
2022-08-16T05:18:27.449Z,20.27
2022-08-16T05:19:23.837Z,20.34
2022-08-16T05:20:38.750Z,20.42
2022-08-16T05:21:24.788Z,20.50
2022-08-16T05:22:23.778Z,20.57
2022-08-16T05:23:23.778Z,20.61
2022-08-16T05:24:24.852Z,20.63
2022-08-16T05:25:23.742Z,20.61
2022-08-16T05:26:24.714Z,20.61
2022-08-16T05:27:23.707Z,20.60
2022-08-16T05:28:23.698Z,20.64
2022-08-16T05:29:24.988Z,20.63
2022-08-16T05:30:35.620Z,20.68
2022-08-16T05:31:29.851Z,20.75
2022-08-16T05:32:32.676Z,20.81
2022-08-16T05:33:24.656Z,20.82
2022-08-16T05:34:23.623Z,20.82
2022-08-16T05:35:24.435Z,20.76
2022-08-16T05:36:23.599Z,20.73
2022-08-16T05:37:24.657Z,20.72
2022-08-16T05:38:33.039Z,20.73
2022-08-16T05:39:24.615Z,20.72
2022-08-16T05:40:23.577Z,20.75
2022-08-16T05:41:23.536Z,20.75
2022-08-16T05:42:23.556Z,20.82
2022-08-16T05:43:24.535Z,20.88
2022-08-16T05:44:25.074Z,20.90
2022-08-16T05:45:23.814Z,20.85
2022-08-16T05:46:29.760Z,20.81
2022-08-16T05:47:24.457Z,20.78
2022-08-16T05:48:26.714Z,20.73
2022-08-16T05:49:23.502Z,20.69
2022-08-16T05:50:28.261Z,20.69
2022-08-16T05:51:35.242Z,20.68
2022-08-16T05:52:24.399Z,20.68
2022-08-16T05:53:24.389Z,20.71
2022-08-16T05:54:25.678Z,20.87
2022-08-16T05:55:23.355Z,20.93
2022-08-16T05:56:23.336Z,20.94
2022-08-16T05:57:23.319Z,20.98
2022-08-16T05:58:33.253Z,21.05
2022-08-16T05:59:24.297Z,21.05
2022-08-16T06:00:23.287Z,21.00
2022-08-16T06:01:23.338Z,20.94
2022-08-16T06:02:23.264Z,21.00
2022-08-16T06:03:24.975Z,21.01
2022-08-16T06:04:34.856Z,21.01
2022-08-16T06:06:27.942Z,21.06
2022-08-16T06:07:26.616Z,21.08
2022-08-16T06:08:32.441Z,21.13
2022-08-16T06:09:25.362Z,21.11
2022-08-16T06:10:32.071Z,21.12
2022-08-16T06:11:25.550Z,21.19
2022-08-16T06:12:26.835Z,21.21
2022-08-16T06:13:25.353Z,21.22
2022-08-16T06:14:25.358Z,21.36
2022-08-16T06:15:24.237Z,21.46
2022-08-16T06:16:27.012Z,21.45
2022-08-16T06:17:24.217Z,21.37
2022-08-16T06:18:27.273Z,21.34
2022-08-16T06:19:24.907Z,21.31
2022-08-16T06:20:35.627Z,21.30
2022-08-16T06:21:25.192Z,21.31
2022-08-16T06:22:39.239Z,21.31
2022-08-16T06:23:25.912Z,21.33
2022-08-16T06:24:55.042Z,21.34
2022-08-16T06:25:36.158Z,21.36
2022-08-16T06:26:25.080Z,21.34
2022-08-16T06:27:25.130Z,21.38
2022-08-16T06:28:36.612Z,21.37
2022-08-16T06:29:25.114Z,21.38
2022-08-16T06:30:24.107Z,21.37
2022-08-16T06:31:24.010Z,21.40
2022-08-16T06:32:27.279Z,21.40
2022-08-16T06:33:24.036Z,21.43
2022-08-16T06:34:53.284Z,21.48
2022-08-16T06:35:24.984Z,21.49
2022-08-16T06:36:26.748Z,21.53
2022-08-16T06:37:23.957Z,21.58
2022-08-16T06:38:32.898Z,21.61
2022-08-16T06:39:25.655Z,21.63
2022-08-16T06:40:23.977Z,21.66
2022-08-16T06:41:27.541Z,21.67
2022-08-16T06:42:23.914Z,21.59
2022-08-16T06:43:27.367Z,21.59
2022-08-16T06:44:24.369Z,21.63
2022-08-16T06:45:24.101Z,21.68
2022-08-16T06:46:31.986Z,21.73
2022-08-16T06:47:24.835Z,21.75
2022-08-16T06:48:33.185Z,21.81
2022-08-16T06:49:24.765Z,21.81
2022-08-16T06:50:31.182Z,21.83
2022-08-16T06:51:24.767Z,21.85
2022-08-16T06:52:57.585Z,21.89
2022-08-16T06:53:24.754Z,21.93
2022-08-16T06:54:23.781Z,21.94
2022-08-16T06:55:23.757Z,21.98
2022-08-16T06:56:23.889Z,21.98
2022-08-16T06:57:23.689Z,22.04
2022-08-16T06:58:31.395Z,22.06
2022-08-16T06:59:25.617Z,22.12
2022-08-16T07:00:24.721Z,22.17
2022-08-16T07:01:44.357Z,22.21
2022-08-16T07:02:32.743Z,22.26
2022-08-16T07:03:28.468Z,22.24
2022-08-16T07:04:31.739Z,22.24
2022-08-16T07:05:27.280Z,22.26
2022-08-16T07:06:26.569Z,22.30
2022-08-16T07:07:24.218Z,22.35
2022-08-16T07:08:24.579Z,22.41
2022-08-16T07:09:23.560Z,22.42
2022-08-16T07:10:26.644Z,22.46
2022-08-16T07:11:46.042Z,22.46
2022-08-16T07:12:42.371Z,22.45
2022-08-16T07:13:57.977Z,22.46
2022-08-16T07:14:27.121Z,22.45
2022-08-16T07:15:25.269Z,22.46
2022-08-16T07:16:27.872Z,22.51
2022-08-16T07:17:23.472Z,22.57
2022-08-16T07:18:24.363Z,22.63
2022-08-16T07:20:01.512Z,22.66
2022-08-16T07:20:34.889Z,22.74
2022-08-16T07:21:24.425Z,22.76
2022-08-16T07:22:38.650Z,22.82
2022-08-16T07:23:37.059Z,22.88
2022-08-16T07:24:30.551Z,22.91
2022-08-16T07:25:24.336Z,22.99
2022-08-16T07:26:25.180Z,22.99
2022-08-16T07:27:23.315Z,22.99
2022-08-16T07:28:24.368Z,23.03
2022-08-16T07:29:23.316Z,23.07
2022-08-16T07:30:38.960Z,23.09
2022-08-16T07:31:24.314Z,23.12
2022-08-16T07:32:29.694Z,23.15
2022-08-16T07:33:53.231Z,23.18
2022-08-16T07:34:34.823Z,23.21
2022-08-16T07:35:24.220Z,23.16
2022-08-16T07:36:23.214Z,23.09
2022-08-16T07:37:23.747Z,23.11
2022-08-16T07:38:31.866Z,23.15
2022-08-16T07:39:24.264Z,23.19
2022-08-16T07:40:42.608Z,23.21
2022-08-16T07:41:24.117Z,23.21
2022-08-16T07:42:28.546Z,23.23
2022-08-16T07:43:24.339Z,23.31
2022-08-16T07:44:24.109Z,23.34
2022-08-16T07:45:23.078Z,23.37
2022-08-16T07:46:38.878Z,23.42
2022-08-16T07:47:24.756Z,23.50
2022-08-16T07:48:24.174Z,23.52
2022-08-16T07:49:23.707Z,23.52
2022-08-16T07:50:57.103Z,23.54
2022-08-16T07:51:23.976Z,23.60
2022-08-16T07:52:22.994Z,23.63
2022-08-16T07:53:23.933Z,23.62
2022-08-16T07:54:32.392Z,23.67
2022-08-16T07:55:23.976Z,23.67
2022-08-16T07:56:22.913Z,23.64
2022-08-16T07:57:24.123Z,23.67
2022-08-16T07:58:33.899Z,23.67
2022-08-16T07:59:23.911Z,23.67
2022-08-16T08:00:25.732Z,23.71
2022-08-16T08:01:22.920Z,23.74
2022-08-16T08:02:22.967Z,23.77
2022-08-16T08:03:22.840Z,23.78
2022-08-16T08:04:23.837Z,23.78
2022-08-16T08:05:28.198Z,23.77
2022-08-16T08:06:25.019Z,23.77
2022-08-16T08:07:23.010Z,23.77
2022-08-16T08:08:50.168Z,23.79
2022-08-16T08:09:24.380Z,23.84
2022-08-16T08:10:29.145Z,23.82
2022-08-16T08:11:24.062Z,23.84
2022-08-16T08:12:32.510Z,23.90
2022-08-16T08:13:41.790Z,23.96
2022-08-16T08:14:29.931Z,24.02
2022-08-16T08:15:25.511Z,24.00
2022-08-16T08:16:30.460Z,24.00
2022-08-16T08:17:23.669Z,24.00
2022-08-16T08:18:30.167Z,24.02
2022-08-16T08:19:23.673Z,24.08
2022-08-16T08:20:28.046Z,24.11
2022-08-16T08:21:27.408Z,24.12
2022-08-16T08:22:22.593Z,24.09
2022-08-16T08:23:22.609Z,24.14
2022-08-16T08:24:22.609Z,24.19
2022-08-16T08:25:23.559Z,24.21
2022-08-16T08:26:22.554Z,24.21
2022-08-16T08:27:23.564Z,24.23
2022-08-16T08:28:22.516Z,24.24
2022-08-16T08:29:24.768Z,24.27
2022-08-16T08:30:51.297Z,24.31
2022-08-16T08:31:24.492Z,24.39
2022-08-16T08:32:57.998Z,24.44
2022-08-16T08:33:23.501Z,24.51
2022-08-16T08:34:23.112Z,24.53
2022-08-16T08:35:24.346Z,24.55
2022-08-16T08:36:22.492Z,24.56
2022-08-16T08:37:22.439Z,24.60
2022-08-16T08:38:45.020Z,24.66
2022-08-16T08:39:23.457Z,24.67
2022-08-16T08:40:24.801Z,24.66
2022-08-16T08:41:27.690Z,24.64
2022-08-16T08:42:26.550Z,24.71
2022-08-16T08:43:22.350Z,24.79
2022-08-16T08:44:27.808Z,24.83
2022-08-16T08:45:47.105Z,24.83
2022-08-16T08:46:23.289Z,24.83
2022-08-16T08:47:22.538Z,24.86
2022-08-16T08:48:33.246Z,24.89
2022-08-16T08:49:23.292Z,24.93
2022-08-16T08:50:32.253Z,24.98
2022-08-16T08:51:23.329Z,25.01
2022-08-16T08:52:22.227Z,25.02
2022-08-16T08:53:29.527Z,25.07
2022-08-16T08:54:23.196Z,25.11
2022-08-16T08:55:22.250Z,25.17
2022-08-16T08:56:23.753Z,25.26
2022-08-16T08:57:22.847Z,25.26
2022-08-16T08:58:22.137Z,25.22
2022-08-16T08:59:22.345Z,25.26
2022-08-16T09:00:22.198Z,25.24
2022-08-16T09:01:31.436Z,25.23
2022-08-16T09:02:23.091Z,25.26
2022-08-16T09:03:22.085Z,25.34
2022-08-16T09:04:23.108Z,25.36
2022-08-16T09:05:22.324Z,25.41
2022-08-16T09:06:22.508Z,25.39
2022-08-16T09:07:22.091Z,25.38
2022-08-16T09:08:22.186Z,25.34
2022-08-16T09:09:22.032Z,25.36
2022-08-16T09:10:22.045Z,25.35
2022-08-16T09:11:21.966Z,25.34
2022-08-16T09:12:35.507Z,25.38
2022-08-16T09:13:22.960Z,25.38
2022-08-16T09:14:23.918Z,25.44
2022-08-16T09:15:21.945Z,25.46
2022-08-16T09:17:01.714Z,25.46
2022-08-16T09:17:51.761Z,25.51
2022-08-16T09:18:25.347Z,25.56
2022-08-16T09:19:32.966Z,25.63
2022-08-16T09:20:23.435Z,25.74
2022-08-16T09:21:21.857Z,25.74
2022-08-16T09:22:22.839Z,25.78
2022-08-16T09:23:21.827Z,25.82
2022-08-16T09:24:52.909Z,25.82
2022-08-16T09:25:26.102Z,25.81
2022-08-16T09:26:44.907Z,25.85
2022-08-16T09:27:25.282Z,25.83
2022-08-16T09:29:14.021Z,25.89
2022-08-16T09:29:24.280Z,25.93
2022-08-16T09:30:33.323Z,25.97
2022-08-16T09:31:22.808Z,25.97
2022-08-16T09:32:28.428Z,25.97
2022-08-16T09:33:22.737Z,26.03
2022-08-16T09:34:21.691Z,26.09
2022-08-16T09:35:21.688Z,26.13
2022-08-16T09:36:32.875Z,26.17
2022-08-16T09:37:29.881Z,26.19
2022-08-16T09:38:32.412Z,26.12
2022-08-16T09:39:22.672Z,26.04
2022-08-16T09:40:33.164Z,26.09
2022-08-16T09:41:22.620Z,26.09
2022-08-16T09:42:21.576Z,26.12
2022-08-16T09:44:00.101Z,26.17
2022-08-16T09:45:12.351Z,26.20
2022-08-16T09:45:22.670Z,26.29
2022-08-16T09:46:45.247Z,26.38
2022-08-16T09:47:23.502Z,26.42
2022-08-16T09:48:21.512Z,26.42
2022-08-16T09:49:22.579Z,26.42
2022-08-16T09:50:22.658Z,26.51
2022-08-16T09:51:23.423Z,26.59
2022-08-16T09:52:22.425Z,26.64
2022-08-16T09:53:21.677Z,26.69
2022-08-16T09:54:21.447Z,26.69
2022-08-16T09:55:21.457Z,26.69
2022-08-16T09:56:21.793Z,26.64
2022-08-16T09:57:21.388Z,26.60
2022-08-16T09:58:41.218Z,26.64
2022-08-16T09:59:22.638Z,26.65
2022-08-16T10:00:44.991Z,26.72
2022-08-16T10:01:22.376Z,26.73
2022-08-16T10:02:27.305Z,26.76
2022-08-16T10:03:22.374Z,26.73
2022-08-16T10:04:30.900Z,26.71
2022-08-16T10:05:22.297Z,26.69
2022-08-16T10:06:21.269Z,26.71
2022-08-16T10:07:21.270Z,26.76
2022-08-16T10:08:26.526Z,26.86
2022-08-16T10:09:22.274Z,26.90
2022-08-16T10:10:31.014Z,26.98
2022-08-16T10:11:23.979Z,27.06
2022-08-16T10:12:21.222Z,27.11
2022-08-16T10:13:21.300Z,27.18
2022-08-16T10:14:24.836Z,27.24
2022-08-16T10:15:22.277Z,27.31
2022-08-16T10:16:22.146Z,27.27
2022-08-16T10:17:21.168Z,27.13
2022-08-16T10:18:54.047Z,27.05
2022-08-16T10:19:22.126Z,27.03
2022-08-16T10:20:21.112Z,27.06
2022-08-16T10:21:22.725Z,27.18
2022-08-16T10:22:23.188Z,27.27
2022-08-16T10:23:21.111Z,27.25
2022-08-16T10:24:28.553Z,27.16
2022-08-16T10:27:00.759Z,27.30
2022-08-16T10:27:17.439Z,27.20
2022-08-16T10:27:26.687Z,27.38
2022-08-16T10:28:32.006Z,27.49
2022-08-16T10:29:22.007Z,27.46
2022-08-16T10:30:25.242Z,27.40
2022-08-16T10:31:45.632Z,27.38
2022-08-16T10:32:21.977Z,27.34
2022-08-16T10:33:21.024Z,27.42
2022-08-16T10:34:30.689Z,27.50
2022-08-16T10:35:21.933Z,27.62
2022-08-16T10:36:37.811Z,27.71
2022-08-16T10:37:32.681Z,27.88
2022-08-16T10:38:27.036Z,28.03
2022-08-16T10:39:21.846Z,28.20
2022-08-16T10:40:29.569Z,28.11
2022-08-16T10:41:25.200Z,28.05
2022-08-16T10:42:20.820Z,28.03
2022-08-16T10:43:20.943Z,28.17
2022-08-16T10:44:20.788Z,28.30
2022-08-16T10:45:21.464Z,28.40
2022-08-16T10:46:33.729Z,28.46
2022-08-16T10:47:22.391Z,28.55
2022-08-16T10:48:26.999Z,28.62
2022-08-16T10:49:21.724Z,28.73
2022-08-16T10:50:20.746Z,28.65
2022-08-16T10:51:20.730Z,28.64
2022-08-16T10:52:24.283Z,28.55
2022-08-16T10:53:21.729Z,28.52
2022-08-16T10:54:29.086Z,28.40
2022-08-16T10:56:52.070Z,28.11
2022-08-16T10:57:24.593Z,28.05
2022-08-16T10:58:20.621Z,27.93
2022-08-16T10:59:32.689Z,27.96
2022-08-16T11:00:22.728Z,28.02
2022-08-16T11:01:43.166Z,28.03
2022-08-16T11:02:58.163Z,27.98
2022-08-16T11:05:21.600Z,27.98
2022-08-16T11:06:21.563Z,28.08
2022-08-16T11:08:31.301Z,28.23
2022-08-16T11:09:24.383Z,28.30
2022-08-16T11:10:21.432Z,28.35
2022-08-16T11:11:21.461Z,28.40
2022-08-16T11:12:20.462Z,28.48
2022-08-16T11:13:57.567Z,28.45
2022-08-16T11:14:21.473Z,28.50
2022-08-16T11:15:20.482Z,28.57
2022-08-16T11:17:00.740Z,28.62
2022-08-16T11:17:21.398Z,28.51
2022-08-16T11:19:03.288Z,28.39
2022-08-16T11:19:22.615Z,28.32
2022-08-16T11:21:28.532Z,28.40
2022-08-16T11:22:38.471Z,28.38
2022-08-16T11:23:21.392Z,28.35
2022-08-16T11:24:39.595Z,28.33
2022-08-16T11:26:24.339Z,28.33
2022-08-16T11:27:23.711Z,28.24
2022-08-16T11:29:21.239Z,28.35
2022-08-16T11:30:20.337Z,28.40
2022-08-16T11:31:21.284Z,28.48
2022-08-16T11:32:29.853Z,28.57
2022-08-16T11:33:52.176Z,28.65
2022-08-16T11:34:21.347Z,28.70
2022-08-16T11:35:43.398Z,28.74
2022-08-16T11:36:27.856Z,28.82
2022-08-16T11:37:27.542Z,28.92
2022-08-16T11:38:23.999Z,29.02
2022-08-16T11:39:21.283Z,29.11
2022-08-16T11:40:20.106Z,29.17
2022-08-16T11:41:21.322Z,29.17
2022-08-16T11:42:28.690Z,29.29
2022-08-16T11:43:21.099Z,29.37
2022-08-16T11:44:52.735Z,29.47
2022-08-16T11:45:21.067Z,29.51
2022-08-16T11:46:44.521Z,29.57
2022-08-16T11:47:21.009Z,29.66
2022-08-16T11:48:19.993Z,29.66
2022-08-16T11:49:19.989Z,29.62
2022-08-16T11:50:20.008Z,29.48
2022-08-16T11:51:19.966Z,29.29
2022-08-16T11:52:21.706Z,29.20
2022-08-16T11:53:20.130Z,29.07
2022-08-16T11:54:21.522Z,29.10
2022-08-16T11:55:19.914Z,29.00
2022-08-16T11:56:39.496Z,28.87
2022-08-16T11:57:20.930Z,28.67
2022-08-16T11:58:20.087Z,28.52
2022-08-16T11:59:19.910Z,28.43
2022-08-16T12:00:49.835Z,28.39
2022-08-16T12:01:29.943Z,28.43
2022-08-16T12:02:31.839Z,28.54
2022-08-16T12:03:31.475Z,28.70
2022-08-16T12:04:21.354Z,28.88
2022-08-16T12:05:19.786Z,28.95
2022-08-16T12:06:30.946Z,28.97
2022-08-16T12:07:20.782Z,28.91
2022-08-16T12:08:19.737Z,28.85
2022-08-16T12:09:20.739Z,28.82
2022-08-16T12:10:19.730Z,28.91
2022-08-16T12:11:19.716Z,28.98
2022-08-16T12:12:19.752Z,29.08
2022-08-16T12:13:19.677Z,29.20
2022-08-16T12:14:19.717Z,29.29
2022-08-16T12:15:19.676Z,29.39
2022-08-16T12:16:20.492Z,29.51
2022-08-16T12:17:19.644Z,29.49
2022-08-16T12:18:20.832Z,29.44
2022-08-16T12:19:19.629Z,29.33
2022-08-16T12:20:19.602Z,29.21
2022-08-16T12:21:19.744Z,29.17
2022-08-16T12:22:20.252Z,29.14
2022-08-16T12:23:19.561Z,29.08
2022-08-16T12:24:19.559Z,29.07
2022-08-16T12:25:19.759Z,29.07
2022-08-16T12:26:19.539Z,29.14
2022-08-16T12:27:19.531Z,29.18
2022-08-16T12:28:37.072Z,29.23
2022-08-16T12:29:20.579Z,29.29
2022-08-16T12:30:21.206Z,29.21
2022-08-16T12:31:19.522Z,29.11
2022-08-16T12:32:27.138Z,29.08
2022-08-16T12:33:25.717Z,29.08
2022-08-16T12:34:27.894Z,29.05
2022-08-16T12:35:20.456Z,28.88
2022-08-16T12:36:19.477Z,28.74
2022-08-16T12:37:19.395Z,28.62
2022-08-16T12:38:41.732Z,28.62
2022-08-16T12:39:20.348Z,28.58
2022-08-16T12:40:23.993Z,28.58
2022-08-16T12:41:24.479Z,28.55
2022-08-16T12:42:20.560Z,28.57
2022-08-16T12:43:20.085Z,28.60
2022-08-16T12:44:19.744Z,28.60
2022-08-16T12:45:19.280Z,28.61
2022-08-16T12:46:19.276Z,28.62
2022-08-16T12:47:19.283Z,28.60
2022-08-16T12:48:33.941Z,28.58
2022-08-16T12:49:20.220Z,28.64
2022-08-16T12:50:20.489Z,28.67
2022-08-16T12:51:22.199Z,28.69
2022-08-16T12:52:32.981Z,28.79
2022-08-16T12:53:20.246Z,29.02
2022-08-16T12:54:19.619Z,29.14
2022-08-16T12:55:19.240Z,29.18
2022-08-16T12:56:19.171Z,29.20
2022-08-16T12:57:19.159Z,29.15
2022-08-16T12:58:49.251Z,29.12
2022-08-16T12:59:20.954Z,29.17
2022-08-16T13:00:26.520Z,29.26